Terminal Aerodrome Forecast
Issued by NWS

Home | Current Version | Previous Version | Text Only | Print | Product List | Glossary On
Versions: 1 2 3 4 5 6 7 8 9 10 11 12 13 14 15
135
FTUS41 KBTV 061130
TAFMPV
TAF
KMPV 061130Z 0612/0712 20005KT P6SM BKN050
     FM061600 20009KT P6SM BKN045
     FM062300 21007KT P6SM SCT045
     FM070900 25006KT P6SM FEW050=

USA.gov is the U.S. government's official web portal to all federal, state and local government web resources and services.